createdAt,value
2023-06-10T00:00:07.218Z,5.82
2023-06-10T00:02:34.154Z,6.03
2023-06-10T00:05:01.070Z,7.07
2023-06-10T00:07:27.862Z,6.38
2023-06-10T00:09:54.606Z,6.07
2023-06-10T00:12:21.487Z,7.25
2023-06-10T00:14:48.489Z,6.18
2023-06-10T00:17:16.632Z,6.22
2023-06-10T00:19:43.404Z,6.22
2023-06-10T00:22:10.272Z,6.00
2023-06-10T00:24:37.073Z,6.32
2023-06-10T00:27:04.025Z,6.50
2023-06-10T00:29:30.781Z,6.80
2023-06-10T00:31:57.589Z,6.35
2023-06-10T00:34:26.116Z,6.43
2023-06-10T00:36:52.887Z,6.55
2023-06-10T00:39:19.678Z,6.38
2023-06-10T00:41:46.463Z,6.40
2023-06-10T00:44:13.227Z,6.43
2023-06-10T00:46:40.010Z,6.82
2023-06-10T00:49:07.001Z,7.15
2023-06-10T00:51:35.395Z,6.57
2023-06-10T00:54:02.503Z,7.80
2023-06-10T00:56:29.431Z,7.43
2023-06-10T00:58:56.195Z,6.80
2023-06-10T01:01:23.178Z,6.55
2023-06-10T01:03:50.051Z,8.25
2023-06-10T01:06:24.365Z,6.68
2023-06-10T01:09:01.395Z,6.53
2023-06-10T01:11:35.199Z,6.97
2023-06-10T01:14:03.723Z,7.85
2023-06-10T01:16:30.716Z,7.07
2023-06-10T01:18:57.487Z,7.40
2023-06-10T01:21:25.791Z,7.50
2023-06-10T01:23:54.899Z,6.90
2023-06-10T01:26:25.791Z,6.85
2023-06-10T01:28:58.182Z,6.70
2023-06-10T01:31:35.191Z,7.07
2023-06-10T01:34:03.913Z,6.63
2023-06-10T01:36:34.581Z,6.93
2023-06-10T01:39:02.988Z,6.72
2023-06-10T01:41:30.569Z,7.00
2023-06-10T01:43:57.456Z,6.40
2023-06-10T01:46:24.353Z,6.70
2023-06-10T01:48:51.165Z,6.60
2023-06-10T01:51:18.060Z,6.85
2023-06-10T01:53:46.308Z,6.30
2023-06-10T01:56:13.191Z,6.57
2023-06-10T01:58:39.960Z,6.35
2023-06-10T02:01:06.859Z,6.20
2023-06-10T02:03:33.784Z,6.22
2023-06-10T02:06:00.728Z,6.18
2023-06-10T02:08:27.556Z,6.55
2023-06-10T02:10:55.850Z,6.47
2023-06-10T02:13:22.651Z,6.35
2023-06-10T02:15:49.438Z,6.63
2023-06-10T02:18:16.256Z,6.40
2023-06-10T02:20:43.082Z,6.28
2023-06-10T02:23:09.867Z,6.80
2023-06-10T02:25:36.652Z,6.68
2023-06-10T02:28:05.258Z,7.03
2023-06-10T02:30:32.170Z,7.07
2023-06-10T02:32:58.995Z,6.65
2023-06-10T02:35:25.833Z,6.85
2023-06-10T02:37:52.670Z,5.82
2023-06-10T02:40:19.497Z,6.07
2023-06-10T02:42:46.318Z,6.35
2023-06-10T02:45:14.457Z,5.80
2023-06-10T02:47:42.342Z,6.53
2023-06-10T02:50:09.944Z,5.87
2023-06-10T02:52:36.984Z,5.68
2023-06-10T02:55:04.007Z,5.97
2023-06-10T02:57:30.801Z,6.68
2023-06-10T02:59:57.600Z,5.85
2023-06-10T03:02:26.195Z,5.72
2023-06-10T03:04:52.955Z,6.03
2023-06-10T03:07:19.694Z,6.07
2023-06-10T03:09:46.486Z,5.72
2023-06-10T03:12:13.314Z,6.22
2023-06-10T03:14:40.087Z,5.93
2023-06-10T03:17:07.004Z,5.68
2023-06-10T03:19:35.273Z,6.07
2023-06-10T03:22:09.329Z,5.20
2023-06-10T03:24:36.281Z,6.00
2023-06-10T03:27:03.283Z,5.68
2023-06-10T03:29:30.070Z,5.90
2023-06-10T03:31:56.929Z,5.88
2023-06-10T03:34:23.742Z,5.78
2023-06-10T03:36:51.889Z,5.43
2023-06-10T03:39:18.764Z,5.93
2023-06-10T03:41:45.560Z,5.07
2023-06-10T03:44:12.368Z,5.63
2023-06-10T03:46:39.201Z,5.07
2023-06-10T03:49:06.040Z,5.55
2023-06-10T03:51:32.852Z,5.47
2023-06-10T03:54:01.001Z,5.90
2023-06-10T03:56:27.782Z,5.88
2023-06-10T03:58:54.683Z,5.32
2023-06-10T04:01:21.606Z,5.28
2023-06-10T04:03:48.499Z,5.05
2023-06-10T04:06:15.483Z,5.20
2023-06-10T04:08:42.628Z,5.10
2023-06-10T04:11:10.787Z,5.43
2023-06-10T04:13:37.698Z,5.65
2023-06-10T04:16:05.041Z,5.55
2023-06-10T04:18:31.892Z,5.13
2023-06-10T04:20:58.659Z,5.30
2023-06-10T04:23:25.470Z,4.93
2023-06-10T04:25:52.244Z,5.60
2023-06-10T04:28:20.375Z,5.55
2023-06-10T04:30:47.183Z,6.07
2023-06-10T04:33:13.960Z,5.47
2023-06-10T04:35:40.777Z,6.15
2023-06-10T04:38:07.578Z,5.00
2023-06-10T04:40:34.483Z,5.10
2023-06-10T04:43:01.268Z,5.72
2023-06-10T04:45:29.389Z,5.43
2023-06-10T04:47:56.250Z,5.00
2023-06-10T04:50:23.158Z,5.18
2023-06-10T04:52:49.959Z,5.40
2023-06-10T04:55:17.073Z,5.03
2023-06-10T04:57:43.845Z,4.95
2023-06-10T05:00:11.781Z,5.22
2023-06-10T05:02:39.940Z,5.07
2023-06-10T05:05:07.499Z,5.20
2023-06-10T05:07:34.481Z,5.43
2023-06-10T05:10:01.297Z,4.68
2023-06-10T05:12:28.187Z,4.65
2023-06-10T05:14:54.956Z,4.95
2023-06-10T05:17:21.776Z,5.20
2023-06-10T05:19:49.865Z,5.28
2023-06-10T05:22:16.630Z,5.13
2023-06-10T05:24:43.435Z,4.90
2023-06-10T05:27:10.346Z,5.45
2023-06-10T05:29:37.166Z,5.22
2023-06-10T05:32:04.603Z,4.97
2023-06-10T05:34:31.843Z,4.82
2023-06-10T05:36:59.998Z,4.70
2023-06-10T05:39:26.789Z,5.13
2023-06-10T05:41:53.561Z,4.90
2023-06-10T05:44:20.357Z,4.82
2023-06-10T05:46:47.284Z,4.90
2023-06-10T05:49:14.659Z,5.13
2023-06-10T05:51:41.532Z,4.80
2023-06-10T05:54:09.638Z,5.28
2023-06-10T05:56:36.815Z,4.93
2023-06-10T05:59:03.597Z,4.85
2023-06-10T06:01:30.355Z,4.68
2023-06-10T06:03:57.351Z,5.57
2023-06-10T06:06:24.452Z,5.20
2023-06-10T06:08:51.375Z,5.25
2023-06-10T06:11:19.725Z,5.07
2023-06-10T06:13:46.594Z,5.07
2023-06-10T06:16:13.420Z,5.63
2023-06-10T06:18:40.416Z,4.95
2023-06-10T06:21:07.193Z,4.78
2023-06-10T06:23:33.982Z,5.15
2023-06-10T06:26:00.914Z,5.00
2023-06-10T06:28:29.002Z,4.82
2023-06-10T06:33:22.797Z,4.97
2023-06-10T06:35:49.612Z,5.43
2023-06-10T06:38:16.394Z,5.25
2023-06-10T06:40:43.322Z,4.88
2023-06-10T06:43:10.164Z,5.63
2023-06-10T06:45:38.395Z,4.80
2023-06-10T06:48:06.601Z,5.03
2023-06-10T06:50:33.555Z,4.97
2023-06-10T06:53:00.476Z,5.20
2023-06-10T06:55:27.238Z,5.05
2023-06-10T06:57:54.065Z,5.00
2023-06-10T07:00:21.053Z,4.95
2023-06-10T07:02:49.512Z,4.95
2023-06-10T07:07:43.102Z,4.80
2023-06-10T07:10:10.221Z,4.88
2023-06-10T07:12:37.123Z,4.75
2023-06-10T07:15:04.621Z,4.78
2023-06-10T07:17:31.511Z,4.80
2023-06-10T07:19:59.650Z,5.30
2023-06-10T07:22:26.453Z,5.45
2023-06-10T07:24:53.219Z,5.40
2023-06-10T07:27:19.997Z,5.18
2023-06-10T07:29:46.750Z,5.80
2023-06-10T07:32:13.541Z,4.95
2023-06-10T07:34:40.326Z,5.13
2023-06-10T07:37:08.516Z,5.10
2023-06-10T07:39:35.389Z,5.15
2023-06-10T07:42:02.599Z,4.90
2023-06-10T07:44:29.367Z,4.97
2023-06-10T07:46:56.218Z,4.78
2023-06-10T07:49:23.394Z,5.28
2023-06-10T07:51:51.252Z,4.85
2023-06-10T07:54:19.402Z,5.82
2023-06-10T07:56:46.228Z,4.47
2023-06-10T07:59:13.028Z,5.13
2023-06-10T08:01:39.784Z,5.35
2023-06-10T08:04:06.927Z,4.72
2023-06-10T08:06:33.814Z,5.30
2023-06-10T08:09:00.616Z,5.40
2023-06-10T08:11:28.815Z,4.80
2023-06-10T08:16:22.322Z,6.70
2023-06-10T08:18:49.143Z,5.82
2023-06-10T08:21:16.035Z,5.10
2023-06-10T08:23:42.918Z,4.60
2023-06-10T08:26:09.915Z,5.05
2023-06-10T08:28:38.052Z,5.10
2023-06-10T08:31:04.871Z,4.80
2023-06-10T08:33:31.682Z,4.68
2023-06-10T08:35:58.474Z,5.25
2023-06-10T08:38:25.252Z,4.50
2023-06-10T08:40:56.932Z,4.68
2023-06-10T08:43:30.385Z,5.30
2023-06-10T08:46:01.591Z,5.10
2023-06-10T08:48:30.341Z,4.82
2023-06-10T08:50:58.289Z,4.45
2023-06-10T08:53:27.021Z,4.57
2023-06-10T08:55:56.062Z,4.95
2023-06-10T08:58:23.273Z,5.30
2023-06-10T09:00:51.845Z,4.60
2023-06-10T09:03:20.206Z,4.80
2023-06-10T09:05:47.297Z,5.00
2023-06-10T09:08:14.538Z,4.60
2023-06-10T09:10:41.916Z,5.20
2023-06-10T09:13:08.848Z,5.00
2023-06-10T09:15:35.663Z,4.60
2023-06-10T09:18:02.611Z,5.15
2023-06-10T09:20:30.744Z,4.28
2023-06-10T09:22:57.545Z,4.63
2023-06-10T09:25:36.256Z,4.88
2023-06-10T09:28:03.560Z,4.47
2023-06-10T09:30:32.115Z,4.82
2023-06-10T09:33:01.039Z,5.05
2023-06-10T09:35:30.761Z,4.78
2023-06-10T09:37:58.867Z,4.60
2023-06-10T09:40:25.722Z,4.90
2023-06-10T09:42:55.366Z,4.72
2023-06-10T09:45:22.831Z,4.63
2023-06-10T09:47:53.155Z,4.83
2023-06-10T09:50:20.283Z,4.82
2023-06-10T09:52:48.732Z,4.97
2023-06-10T09:55:15.857Z,4.78
2023-06-10T09:57:42.753Z,4.80
2023-06-10T10:00:11.646Z,5.00
2023-06-10T10:02:46.256Z,4.63
2023-06-10T10:05:14.670Z,4.90
2023-06-10T10:07:43.689Z,5.10
2023-06-10T10:10:12.992Z,4.68
2023-06-10T10:12:41.072Z,5.00
2023-06-10T10:15:10.190Z,4.55
2023-06-10T10:17:41.184Z,4.63
2023-06-10T10:20:13.417Z,5.32
2023-06-10T10:22:41.287Z,4.80
2023-06-10T10:25:14.767Z,4.78
2023-06-10T10:27:45.642Z,4.28
2023-06-10T10:30:15.028Z,4.80
2023-06-10T10:32:51.823Z,4.57
2023-06-10T10:35:21.857Z,4.60
2023-06-10T10:37:48.998Z,4.32
2023-06-10T10:40:17.830Z,4.32
2023-06-10T10:42:45.272Z,3.90
2023-06-10T10:45:12.674Z,4.20
2023-06-10T10:47:40.828Z,4.00
2023-06-10T10:50:16.111Z,3.80
2023-06-10T10:52:54.662Z,4.25
2023-06-10T10:55:23.147Z,4.18
2023-06-10T10:57:56.568Z,4.55
2023-06-10T11:00:29.400Z,4.00
2023-06-10T11:03:01.705Z,3.67
2023-06-10T11:05:37.267Z,4.00
2023-06-10T11:08:04.447Z,3.65
2023-06-10T11:10:34.399Z,3.80
2023-06-10T11:13:01.522Z,3.72
2023-06-10T11:15:30.209Z,4.00
2023-06-10T11:18:20.579Z,3.70
2023-06-10T11:20:55.866Z,4.22
2023-06-10T11:23:44.570Z,4.00
2023-06-10T11:26:20.907Z,3.40
2023-06-10T11:29:04.131Z,3.90
2023-06-10T11:31:32.468Z,3.75
2023-06-10T11:34:00.638Z,4.30
2023-06-10T11:36:28.994Z,3.80
2023-06-10T11:38:57.923Z,3.90
2023-06-10T11:41:27.358Z,3.88
2023-06-10T11:43:54.940Z,3.65
2023-06-10T11:46:21.810Z,3.63
2023-06-10T11:48:52.418Z,3.63
2023-06-10T11:51:19.459Z,3.72
2023-06-10T11:53:46.423Z,4.05
2023-06-10T11:56:13.372Z,3.97
2023-06-10T11:58:46.022Z,3.60
2023-06-10T12:01:28.209Z,3.83
2023-06-10T12:04:00.778Z,3.92
2023-06-10T12:06:27.761Z,3.97
2023-06-10T12:08:55.040Z,3.60
2023-06-10T12:11:22.241Z,4.10
2023-06-10T12:13:51.023Z,4.18
2023-06-10T12:16:18.130Z,4.00
2023-06-10T12:18:46.021Z,4.10
2023-06-10T12:21:20.023Z,4.10
2023-06-10T12:24:07.249Z,3.58
2023-06-10T12:26:42.204Z,4.30
2023-06-10T12:29:23.752Z,3.63
2023-06-10T12:32:01.779Z,4.07
2023-06-10T12:34:33.853Z,3.75
2023-06-10T12:37:00.935Z,4.38
2023-06-10T12:39:27.718Z,4.20
2023-06-10T12:41:54.535Z,4.43
2023-06-10T12:44:32.066Z,3.90
2023-06-10T12:46:58.950Z,3.90
2023-06-10T12:49:25.872Z,3.80
2023-06-10T12:51:52.823Z,3.75
2023-06-10T12:54:19.654Z,4.07
2023-06-10T12:56:46.488Z,3.80
2023-06-10T12:59:13.297Z,3.83
2023-06-10T13:01:41.489Z,3.80
2023-06-10T13:04:08.328Z,3.70
2023-06-10T13:06:35.221Z,3.72
2023-06-10T13:09:01.965Z,4.03
2023-06-10T13:11:28.740Z,3.92
2023-06-10T13:13:55.486Z,4.10
2023-06-10T13:16:22.400Z,4.25
2023-06-10T13:18:50.674Z,4.15
2023-06-10T13:21:17.458Z,3.83
2023-06-10T13:23:45.409Z,3.90
2023-06-10T13:26:12.312Z,4.00
2023-06-10T13:28:39.057Z,3.67
2023-06-10T13:31:05.850Z,4.18
2023-06-10T13:33:32.633Z,4.03
2023-06-10T13:36:00.757Z,4.00
2023-06-10T13:40:54.305Z,3.58
2023-06-10T13:43:21.106Z,3.97
2023-06-10T13:45:47.949Z,3.90
2023-06-10T13:48:14.810Z,3.72
2023-06-10T13:50:41.635Z,3.65
2023-06-10T13:53:09.866Z,4.00
2023-06-10T13:55:36.676Z,4.20
2023-06-10T13:58:03.485Z,3.80
2023-06-10T14:00:30.509Z,4.63
2023-06-10T14:02:57.392Z,3.80
2023-06-10T14:05:24.372Z,3.80
2023-06-10T14:07:51.141Z,3.65
2023-06-10T14:10:19.328Z,3.75
2023-06-10T14:12:46.153Z,3.70
2023-06-10T14:15:13.360Z,4.10
2023-06-10T14:17:40.499Z,3.80
2023-06-10T14:20:08.352Z,4.00
2023-06-10T14:22:35.189Z,3.85
2023-06-10T14:25:01.975Z,4.00
2023-06-10T14:27:30.121Z,3.85
2023-06-10T14:29:56.918Z,3.75
2023-06-10T14:32:23.969Z,3.97
2023-06-10T14:34:50.906Z,3.87
2023-06-10T14:37:17.716Z,4.15
2023-06-10T14:39:44.516Z,4.25
2023-06-10T14:42:11.292Z,3.80
2023-06-10T14:44:39.378Z,4.30
2023-06-10T14:49:33.098Z,3.97
2023-06-10T14:51:59.860Z,4.60
2023-06-10T14:54:26.607Z,3.90
2023-06-10T14:56:53.445Z,4.03
2023-06-10T14:59:20.349Z,4.43
2023-06-10T15:01:48.514Z,3.90
2023-06-10T15:04:15.556Z,4.10
2023-06-10T15:06:42.483Z,3.95
2023-06-10T15:09:09.458Z,4.22
2023-06-10T15:11:37.401Z,4.00
2023-06-10T15:14:04.190Z,4.18
2023-06-10T15:16:31.182Z,4.30
2023-06-10T15:18:59.433Z,3.80
2023-06-10T15:23:53.032Z,3.67
2023-06-10T15:26:20.050Z,4.10
2023-06-10T15:28:47.137Z,4.50
2023-06-10T15:31:13.989Z,3.90
2023-06-10T15:33:40.745Z,4.00
2023-06-10T15:36:08.992Z,4.80
2023-06-10T15:38:35.787Z,4.60
2023-06-10T15:41:02.599Z,4.43
2023-06-10T15:43:29.403Z,6.05
2023-06-10T15:45:56.278Z,5.85
2023-06-10T15:48:23.206Z,4.30
2023-06-10T15:50:50.148Z,4.28
2023-06-10T15:53:18.257Z,5.10
2023-06-10T15:58:11.676Z,4.25
2023-06-10T16:00:38.578Z,4.20
2023-06-10T16:03:05.699Z,4.30
2023-06-10T16:05:32.622Z,5.25
2023-06-10T16:08:00.487Z,6.40
2023-06-10T16:10:30.919Z,4.97
2023-06-10T16:15:24.392Z,4.20
2023-06-10T16:17:51.192Z,4.03
2023-06-10T16:20:18.018Z,4.28
2023-06-10T16:22:44.821Z,4.32
2023-06-10T16:25:11.995Z,4.28
2023-06-10T16:27:40.492Z,4.53
2023-06-10T16:32:34.611Z,5.83
2023-06-10T16:35:01.412Z,4.40
2023-06-10T16:37:28.158Z,4.60
2023-06-10T16:39:54.978Z,4.32
2023-06-10T16:42:21.788Z,4.35
2023-06-10T16:44:49.910Z,4.57
2023-06-10T16:49:43.458Z,4.00
2023-06-10T16:52:10.252Z,4.53
2023-06-10T16:54:37.050Z,4.47
2023-06-10T16:57:04.169Z,4.90
2023-06-10T16:59:30.959Z,4.10
2023-06-10T17:02:01.922Z,4.60
2023-06-10T17:04:30.796Z,4.30
2023-06-10T17:06:57.594Z,4.07
2023-06-10T17:09:24.525Z,4.25
2023-06-10T17:11:51.277Z,4.45
2023-06-10T17:14:18.281Z,4.30
2023-06-10T17:16:45.258Z,4.13
2023-06-10T17:19:13.490Z,4.40
2023-06-10T17:24:07.717Z,4.22
2023-06-10T17:26:34.547Z,3.85
2023-06-10T17:29:01.296Z,3.70
2023-06-10T17:31:28.083Z,4.30
2023-06-10T17:33:54.964Z,4.20
2023-06-10T17:36:23.107Z,4.47
2023-06-10T17:38:49.905Z,4.18
2023-06-10T17:41:16.740Z,4.07
2023-06-10T17:43:45.396Z,4.25
2023-06-10T17:46:12.463Z,4.30
2023-06-10T17:48:39.310Z,4.65
2023-06-10T17:51:06.061Z,4.40
2023-06-10T17:53:34.240Z,4.30
2023-06-10T17:56:02.293Z,4.20
2023-06-10T18:00:55.945Z,4.40
2023-06-10T18:03:22.882Z,4.72
2023-06-10T18:05:49.729Z,4.70
2023-06-10T18:08:16.536Z,4.80
2023-06-10T18:10:45.360Z,4.43
2023-06-10T18:13:12.167Z,4.03
2023-06-10T18:15:39.028Z,4.80
2023-06-10T18:18:06.048Z,4.40
2023-06-10T18:20:32.908Z,5.05
2023-06-10T18:22:59.832Z,4.60
2023-06-10T18:25:26.605Z,4.70
2023-06-10T18:27:54.728Z,4.60
2023-06-10T18:30:21.696Z,4.55
2023-06-10T18:32:48.521Z,4.78
2023-06-10T18:35:15.335Z,4.50
2023-06-10T18:37:42.186Z,4.50
2023-06-10T18:40:10.273Z,4.15
2023-06-10T18:42:37.275Z,4.47
2023-06-10T18:45:06.534Z,4.72
2023-06-10T18:47:41.146Z,4.78
2023-06-10T18:50:15.890Z,5.00
2023-06-10T18:52:42.728Z,4.78
2023-06-10T18:55:09.953Z,4.80
2023-06-10T18:57:36.895Z,4.57
2023-06-10T19:00:06.366Z,5.40
2023-06-10T19:02:33.216Z,4.80
2023-06-10T19:05:00.017Z,5.00
2023-06-10T19:07:26.797Z,4.85
2023-06-10T19:09:53.603Z,4.65
2023-06-10T19:12:20.748Z,4.97
2023-06-10T19:14:47.518Z,4.88
2023-06-10T19:17:15.872Z,5.28
2023-06-10T19:22:09.625Z,4.80
2023-06-10T19:24:36.423Z,4.53
2023-06-10T19:27:03.478Z,5.43
2023-06-10T19:29:30.271Z,5.28
2023-06-10T19:31:57.153Z,4.82
2023-06-10T19:34:26.811Z,4.50
2023-06-10T19:36:53.647Z,4.60
2023-06-10T19:39:20.456Z,5.00
2023-06-10T19:41:47.222Z,4.95
2023-06-10T19:44:14.006Z,5.28
2023-06-10T19:46:40.912Z,4.90
2023-06-10T19:49:07.720Z,4.75
2023-06-10T19:51:35.877Z,4.85
2023-06-10T19:54:02.656Z,5.38
2023-06-10T19:56:29.405Z,4.88
2023-06-10T19:58:56.177Z,5.03
2023-06-10T20:01:22.954Z,5.05
2023-06-10T20:03:49.961Z,5.45
2023-06-10T20:06:17.381Z,5.03
2023-06-10T20:08:46.040Z,5.18
2023-06-10T20:13:48.777Z,4.57
2023-06-10T20:16:16.737Z,5.47
2023-06-10T20:18:44.672Z,5.30
2023-06-10T20:21:17.440Z,5.13
2023-06-10T20:23:49.554Z,5.03
2023-06-10T20:26:23.127Z,5.45
2023-06-10T20:28:52.718Z,5.43
2023-06-10T20:31:22.768Z,5.80
2023-06-10T20:33:54.092Z,5.60
2023-06-10T20:36:28.999Z,5.82
2023-06-10T20:39:06.823Z,5.63
2023-06-10T20:41:41.835Z,6.03
2023-06-10T20:44:13.798Z,5.68
2023-06-10T20:46:51.436Z,6.13
2023-06-10T20:49:22.697Z,6.00
2023-06-10T20:52:07.937Z,5.68
2023-06-10T20:54:49.497Z,5.85
2023-06-10T20:57:33.061Z,5.82
2023-06-10T21:00:07.860Z,5.90
2023-06-10T21:02:44.924Z,5.50
2023-06-10T21:05:18.836Z,6.95
2023-06-10T21:07:50.199Z,9.82
2023-06-10T21:10:23.713Z,14.00
2023-06-10T21:12:58.760Z,16.60
2023-06-10T21:15:34.510Z,26.15
2023-06-10T21:18:13.827Z,24.55
2023-06-10T21:20:46.631Z,22.52
2023-06-10T21:23:24.469Z,18.58
2023-06-10T21:26:07.239Z,15.82
2023-06-10T21:28:48.032Z,14.93
2023-06-10T21:31:25.872Z,11.43
2023-06-10T21:34:00.197Z,10.20
2023-06-10T21:36:43.580Z,9.10
2023-06-10T21:39:11.138Z,8.55
2023-06-10T21:41:52.528Z,7.15
2023-06-10T21:44:27.605Z,6.90
2023-06-10T21:47:03.305Z,6.65
2023-06-10T21:49:37.570Z,6.43
2023-06-10T21:52:20.016Z,6.47
2023-06-10T21:54:47.483Z,6.55
2023-06-10T21:57:21.862Z,6.38
2023-06-10T21:59:53.465Z,6.03
2023-06-10T22:02:21.107Z,5.85
2023-06-10T22:05:17.436Z,6.25
2023-06-10T22:07:52.353Z,5.65
2023-06-10T22:10:22.466Z,5.97
2023-06-10T22:12:54.357Z,5.95
2023-06-10T22:15:25.619Z,5.80
2023-06-10T22:17:53.027Z,6.28
2023-06-10T22:20:25.444Z,6.18
2023-06-10T22:22:55.728Z,6.40
2023-06-10T22:25:27.742Z,6.53
2023-06-10T22:28:13.419Z,6.10
2023-06-10T22:33:27.448Z,6.30
2023-06-10T22:35:54.829Z,6.03
2023-06-10T22:38:39.460Z,6.00
2023-06-10T22:41:13.612Z,5.80
2023-06-10T22:43:51.786Z,6.30
2023-06-10T22:46:19.487Z,6.30
2023-06-10T22:48:47.187Z,5.90
2023-06-10T22:51:17.650Z,6.30
2023-06-10T22:53:45.037Z,6.45
2023-06-10T22:56:15.454Z,7.00
2023-06-10T22:58:51.116Z,6.75
2023-06-10T23:01:21.659Z,6.97
2023-06-10T23:03:51.298Z,6.40
2023-06-10T23:06:29.053Z,7.00
2023-06-10T23:09:01.723Z,7.05
2023-06-10T23:11:34.788Z,6.85
2023-06-10T23:14:11.384Z,6.70
2023-06-10T23:16:43.723Z,6.90
2023-06-10T23:19:31.911Z,6.03
2023-06-10T23:22:13.898Z,7.30
2023-06-10T23:24:46.149Z,6.95
2023-06-10T23:27:20.449Z,7.85
2023-06-10T23:29:59.237Z,6.78
2023-06-10T23:32:36.737Z,8.18
2023-06-10T23:35:06.725Z,7.28
2023-06-10T23:37:39.795Z,7.68
2023-06-10T23:40:13.514Z,8.05
2023-06-10T23:42:45.985Z,7.65
2023-06-10T23:45:21.852Z,8.45
2023-06-10T23:47:57.255Z,7.88
2023-06-10T23:50:25.166Z,8.55
2023-06-10T23:52:55.069Z,8.25
2023-06-10T23:55:25.500Z,8.13
2023-06-10T23:57:55.055Z,8.15
